createdAt,value
2022-08-03T00:01:32.490Z,8.02
2022-08-03T00:03:59.726Z,8.63
2022-08-03T00:06:26.799Z,7.53
2022-08-03T00:08:53.733Z,7.80
2022-08-03T00:11:20.920Z,7.88
2022-08-03T00:13:48.120Z,7.85
2022-08-03T00:16:15.514Z,8.25
2022-08-03T00:18:42.523Z,7.97
2022-08-03T00:21:09.849Z,7.80
2022-08-03T00:23:51.921Z,7.85
2022-08-03T00:26:22.997Z,7.68
2022-08-03T00:28:50.380Z,7.60
2022-08-03T00:31:23.051Z,8.10
2022-08-03T00:34:04.546Z,7.53
2022-08-03T00:36:33.107Z,8.15
2022-08-03T00:39:00.311Z,7.88
2022-08-03T00:41:27.392Z,7.95
2022-08-03T00:43:54.328Z,8.07
2022-08-03T00:46:22.581Z,8.30
2022-08-03T00:48:51.004Z,7.43
2022-08-03T00:51:19.686Z,7.82
2022-08-03T00:53:46.672Z,7.43
2022-08-03T00:56:17.737Z,7.50
2022-08-03T00:58:46.507Z,7.85
2022-08-03T01:01:14.783Z,8.10
2022-08-03T01:03:42.261Z,8.55
2022-08-03T01:06:23.325Z,7.78
2022-08-03T01:09:07.252Z,7.70
2022-08-03T01:11:59.981Z,6.95
2022-08-03T01:14:34.184Z,7.05
2022-08-03T01:17:24.327Z,9.05
2022-08-03T01:20:02.253Z,7.78
2022-08-03T01:22:55.578Z,8.13
2022-08-03T01:25:40.364Z,8.32
2022-08-03T01:28:25.309Z,8.45
2022-08-03T01:30:56.653Z,8.50
2022-08-03T01:33:33.035Z,8.77
2022-08-03T01:36:03.552Z,8.45
2022-08-03T01:38:49.724Z,8.98
2022-08-03T01:41:25.142Z,9.80
2022-08-03T01:44:26.792Z,10.80
2022-08-03T01:46:47.762Z,11.10
2022-08-03T01:49:17.741Z,11.02
2022-08-03T01:51:58.456Z,11.65
2022-08-03T01:54:32.987Z,11.85
2022-08-03T01:57:00.102Z,12.40
2022-08-03T01:59:30.603Z,11.40
2022-08-03T02:02:16.076Z,11.57
2022-08-03T02:04:49.184Z,12.13
2022-08-03T02:07:17.299Z,13.10
2022-08-03T02:09:47.035Z,14.00
2022-08-03T02:12:15.545Z,13.90
2022-08-03T02:15:03.615Z,13.45
2022-08-03T02:17:38.683Z,14.75
2022-08-03T02:20:12.456Z,15.02
2022-08-03T02:22:44.646Z,14.15
2022-08-03T02:25:15.618Z,14.40
2022-08-03T02:28:06.552Z,14.50
2022-08-03T02:30:38.743Z,14.43
2022-08-03T02:33:10.258Z,13.32
2022-08-03T02:35:38.247Z,13.45
2022-08-03T02:38:08.488Z,13.02
2022-08-03T02:40:36.926Z,11.93
2022-08-03T02:43:08.389Z,12.23
2022-08-03T02:45:45.914Z,11.85
2022-08-03T02:48:18.323Z,11.65
2022-08-03T02:50:46.090Z,11.02
2022-08-03T02:53:14.526Z,10.95
2022-08-03T02:55:43.168Z,11.55
2022-08-03T02:58:14.172Z,10.88
2022-08-03T03:00:44.158Z,11.52
2022-08-03T03:03:12.371Z,11.60
2022-08-03T03:05:54.682Z,12.70
2022-08-03T03:08:28.870Z,12.32
2022-08-03T03:11:01.694Z,11.85
2022-08-03T03:13:30.383Z,12.75
2022-08-03T03:16:01.639Z,12.70
2022-08-03T03:18:29.502Z,11.95
2022-08-03T03:20:57.813Z,11.80
2022-08-03T03:23:26.355Z,10.57
2022-08-03T03:25:56.085Z,10.32
2022-08-03T03:28:24.899Z,10.60
2022-08-03T03:30:53.470Z,10.25
2022-08-03T03:33:22.392Z,10.13
2022-08-03T03:35:50.243Z,10.85
2022-08-03T03:38:17.949Z,9.65
2022-08-03T03:40:45.327Z,9.68
2022-08-03T03:43:13.301Z,9.68
2022-08-03T03:45:43.655Z,9.50
2022-08-03T03:48:11.432Z,10.52
2022-08-03T03:50:41.697Z,9.85
2022-08-03T03:53:13.638Z,10.13
2022-08-03T03:55:59.594Z,9.93
2022-08-03T03:58:28.429Z,10.35
2022-08-03T04:00:55.641Z,9.35
2022-08-03T04:03:23.264Z,9.23
2022-08-03T04:06:08.850Z,9.40
2022-08-03T04:08:54.596Z,9.38
2022-08-03T04:11:38.801Z,9.75
2022-08-03T04:14:11.020Z,10.32
2022-08-03T04:16:45.167Z,9.48
2022-08-03T04:19:22.606Z,9.63
2022-08-03T04:21:56.891Z,10.75
2022-08-03T04:24:27.258Z,10.68
2022-08-03T04:26:57.317Z,10.07
2022-08-03T04:29:26.728Z,10.02
2022-08-03T04:31:55.352Z,10.35
2022-08-03T04:34:23.705Z,10.57
2022-08-03T04:36:55.344Z,9.98
2022-08-03T04:39:27.806Z,9.40
2022-08-03T04:42:04.325Z,10.05
2022-08-03T04:44:41.888Z,9.32
2022-08-03T04:47:09.031Z,8.98
2022-08-03T04:49:40.440Z,9.90
2022-08-03T04:52:08.817Z,9.35
2022-08-03T04:54:50.036Z,9.05
2022-08-03T04:57:22.280Z,9.25
2022-08-03T05:00:01.288Z,9.30
2022-08-03T05:02:33.829Z,9.27
2022-08-03T05:05:00.989Z,10.00
2022-08-03T05:07:35.777Z,9.40
2022-08-03T05:10:15.954Z,9.52
2022-08-03T05:12:45.914Z,8.80
2022-08-03T05:15:13.292Z,8.73
2022-08-03T05:17:40.639Z,8.35
2022-08-03T05:20:08.262Z,9.27
2022-08-03T05:22:35.203Z,9.27
2022-08-03T05:25:03.061Z,7.88
2022-08-03T05:27:30.656Z,8.00
2022-08-03T05:30:27.304Z,8.45
2022-08-03T05:32:44.787Z,8.35
2022-08-03T05:35:55.667Z,8.48
2022-08-03T05:37:58.889Z,9.48
2022-08-03T05:40:25.895Z,9.05
2022-08-03T05:42:54.056Z,9.15
2022-08-03T05:45:26.623Z,9.38
2022-08-03T05:47:55.353Z,9.25
2022-08-03T05:50:22.393Z,8.43
2022-08-03T05:52:49.489Z,8.90
2022-08-03T05:55:17.178Z,8.85
2022-08-03T05:57:46.617Z,8.40
2022-08-03T06:00:14.037Z,9.27
2022-08-03T06:02:43.199Z,8.20
2022-08-03T06:05:10.915Z,8.25
2022-08-03T06:07:38.361Z,8.23
2022-08-03T06:10:35.635Z,7.85
2022-08-03T06:12:53.651Z,7.80
2022-08-03T06:15:21.032Z,7.93
2022-08-03T06:17:50.027Z,6.88
2022-08-03T06:20:18.816Z,7.95
2022-08-03T06:22:50.718Z,6.82
2022-08-03T06:25:21.386Z,7.55
2022-08-03T06:27:48.493Z,6.30
2022-08-03T06:30:21.053Z,5.90
2022-08-03T06:32:52.218Z,6.07
2022-08-03T06:35:20.190Z,5.85
2022-08-03T06:37:49.336Z,5.93
2022-08-03T06:40:21.900Z,5.60
2022-08-03T06:42:51.787Z,5.20
2022-08-03T06:45:18.845Z,5.82
2022-08-03T06:47:45.970Z,5.47
2022-08-03T06:50:16.945Z,5.15
2022-08-03T06:52:45.492Z,5.50
2022-08-03T06:55:12.543Z,5.10
2022-08-03T06:57:39.507Z,4.68
2022-08-03T07:00:12.283Z,5.30
2022-08-03T07:02:40.129Z,4.93
2022-08-03T07:05:08.422Z,5.00
2022-08-03T07:07:35.537Z,4.78
2022-08-03T07:10:02.632Z,4.78
2022-08-03T07:12:31.302Z,4.82
2022-08-03T07:15:01.699Z,5.70
2022-08-03T07:17:34.792Z,5.03
2022-08-03T07:20:03.876Z,4.72
2022-08-03T07:22:31.018Z,4.60
2022-08-03T07:24:58.794Z,4.03
2022-08-03T07:27:29.949Z,4.30
2022-08-03T07:29:58.590Z,5.03
2022-08-03T07:32:26.147Z,4.72
2022-08-03T07:34:58.336Z,4.47
2022-08-03T07:37:28.213Z,4.40
2022-08-03T07:39:55.152Z,4.60
2022-08-03T07:42:23.514Z,4.40
2022-08-03T07:44:50.591Z,4.30
2022-08-03T07:47:23.155Z,4.07
2022-08-03T07:49:50.538Z,4.38
2022-08-03T07:52:36.221Z,4.40
2022-08-03T07:55:04.167Z,4.03
2022-08-03T07:57:31.091Z,4.35
2022-08-03T08:00:01.602Z,4.70
2022-08-03T08:02:39.763Z,4.55
2022-08-03T08:05:07.389Z,5.05
2022-08-03T08:07:34.460Z,4.20
2022-08-03T08:10:01.593Z,4.85
2022-08-03T08:12:30.568Z,5.18
2022-08-03T08:14:57.571Z,4.55
2022-08-03T08:17:24.855Z,4.32
2022-08-03T08:19:53.296Z,4.30
2022-08-03T08:22:30.216Z,4.45
2022-08-03T08:24:59.463Z,4.53
2022-08-03T08:27:26.610Z,3.88
2022-08-03T08:29:55.745Z,4.15
2022-08-03T08:32:25.892Z,3.88
2022-08-03T08:34:53.308Z,4.95
2022-08-03T08:37:20.289Z,4.43
2022-08-03T08:39:47.246Z,4.43
2022-08-03T08:42:15.865Z,4.10
2022-08-03T08:44:43.061Z,4.10
2022-08-03T08:47:10.512Z,4.10
2022-08-03T08:49:40.345Z,4.53
2022-08-03T08:52:24.866Z,4.70
2022-08-03T08:55:00.557Z,4.40
2022-08-03T08:57:42.769Z,4.45
2022-08-03T09:00:14.811Z,4.07
2022-08-03T09:02:46.512Z,4.25
2022-08-03T09:05:15.634Z,4.00
2022-08-03T09:07:43.866Z,4.20
2022-08-03T09:10:13.958Z,4.05
2022-08-03T09:12:49.475Z,4.53
2022-08-03T09:15:29.348Z,4.13
2022-08-03T09:17:57.963Z,4.38
2022-08-03T09:20:27.800Z,4.32
2022-08-03T09:23:44.501Z,4.40
2022-08-03T09:25:59.996Z,4.22
2022-08-03T09:29:01.756Z,4.25
2022-08-03T09:31:36.375Z,4.00
2022-08-03T09:34:05.968Z,4.47
2022-08-03T09:36:46.885Z,4.45
2022-08-03T09:39:16.887Z,4.53
2022-08-03T09:41:47.118Z,4.40
2022-08-03T09:44:24.267Z,4.30
2022-08-03T09:46:56.359Z,4.10
2022-08-03T09:49:24.535Z,4.20
2022-08-03T09:52:31.805Z,4.60
2022-08-03T09:54:39.515Z,4.93
2022-08-03T09:57:06.786Z,4.63
2022-08-03T09:59:34.694Z,4.70
2022-08-03T10:02:02.066Z,4.55
2022-08-03T10:04:29.261Z,4.55
2022-08-03T10:07:10.645Z,4.50
2022-08-03T10:09:38.375Z,4.50
2022-08-03T10:12:13.258Z,4.47
2022-08-03T10:14:42.294Z,4.18
2022-08-03T10:17:12.837Z,4.22
2022-08-03T10:19:41.429Z,4.75
2022-08-03T10:22:12.554Z,4.70
2022-08-03T10:24:44.717Z,4.40
2022-08-03T10:27:13.527Z,4.50
2022-08-03T10:29:47.543Z,4.40
2022-08-03T10:32:21.595Z,4.40
2022-08-03T10:34:59.959Z,4.38
2022-08-03T10:37:32.457Z,5.10
2022-08-03T10:40:01.575Z,4.40
2022-08-03T10:42:34.911Z,4.47
2022-08-03T10:45:26.879Z,4.72
2022-08-03T10:47:56.223Z,4.55
2022-08-03T10:50:25.256Z,4.47
2022-08-03T10:52:58.798Z,4.60
2022-08-03T10:55:52.112Z,4.50
2022-08-03T10:58:41.505Z,4.38
2022-08-03T11:02:00.823Z,4.35
2022-08-03T11:04:30.145Z,4.57
2022-08-03T11:07:16.777Z,4.53
2022-08-03T11:09:47.713Z,4.60
2022-08-03T11:12:31.234Z,4.60
2022-08-03T11:15:09.164Z,4.50
2022-08-03T11:17:46.623Z,4.40
2022-08-03T11:23:20.173Z,4.47
2022-08-03T11:26:18.194Z,4.28
2022-08-03T11:28:48.633Z,4.40
2022-08-03T11:31:49.807Z,4.13
2022-08-03T11:34:17.910Z,4.35
2022-08-03T11:37:23.545Z,4.45
2022-08-03T11:39:54.807Z,4.90
2022-08-03T11:42:25.084Z,4.65
2022-08-03T11:44:57.436Z,4.13
2022-08-03T11:47:29.361Z,4.40
2022-08-03T11:50:00.456Z,4.70
2022-08-03T11:52:34.030Z,4.78
2022-08-03T11:55:01.967Z,4.40
2022-08-03T11:59:16.990Z,4.88
2022-08-03T12:00:28.392Z,4.28
2022-08-03T12:02:59.880Z,4.47
2022-08-03T12:05:51.175Z,4.82
2022-08-03T12:08:28.189Z,4.28
2022-08-03T12:10:56.789Z,5.05
2022-08-03T12:14:32.971Z,4.50
2022-08-03T12:16:22.058Z,4.43
2022-08-03T12:21:29.914Z,4.53
2022-08-03T12:24:02.074Z,4.60
2022-08-03T12:26:30.138Z,5.03
2022-08-03T12:28:58.520Z,5.00
2022-08-03T12:31:25.816Z,5.57
2022-08-03T12:34:04.474Z,5.57
2022-08-03T12:36:33.607Z,5.82
2022-08-03T12:39:03.413Z,5.85
2022-08-03T12:41:34.737Z,4.90
2022-08-03T12:44:04.120Z,4.72
2022-08-03T12:46:34.763Z,4.78
2022-08-03T12:49:04.739Z,4.80
2022-08-03T12:51:37.621Z,4.70
2022-08-03T12:54:05.774Z,5.25
2022-08-03T12:56:33.212Z,4.80
2022-08-03T12:59:00.333Z,5.20
2022-08-03T13:01:36.439Z,5.43
2022-08-03T13:04:05.610Z,4.47
2022-08-03T13:06:32.796Z,5.18
2022-08-03T13:09:07.701Z,4.63
2022-08-03T13:11:58.985Z,4.63
2022-08-03T13:14:23.751Z,4.90
2022-08-03T13:16:51.343Z,4.70
2022-08-03T13:19:18.399Z,4.53
2022-08-03T13:21:53.477Z,4.47
2022-08-03T13:24:34.171Z,4.85
2022-08-03T13:27:58.909Z,4.47
2022-08-03T13:29:50.697Z,4.80
2022-08-03T13:32:17.666Z,4.82
2022-08-03T13:34:44.689Z,4.90
2022-08-03T13:37:12.312Z,4.88
2022-08-03T13:39:57.475Z,4.88
2022-08-03T13:42:31.215Z,5.13
2022-08-03T13:44:59.116Z,4.90
2022-08-03T13:47:26.913Z,4.78
2022-08-03T13:50:00.802Z,4.90
2022-08-03T13:52:35.161Z,4.65
2022-08-03T13:55:04.813Z,5.05
2022-08-03T13:58:04.185Z,4.80
2022-08-03T14:00:27.412Z,5.45
2022-08-03T14:03:13.265Z,5.07
2022-08-03T14:05:43.189Z,5.30
2022-08-03T14:08:10.811Z,4.75
2022-08-03T14:10:39.823Z,4.72
2022-08-03T14:13:07.183Z,4.82
2022-08-03T14:15:37.599Z,4.65
2022-08-03T14:18:05.543Z,5.40
2022-08-03T14:20:38.717Z,5.45
2022-08-03T14:23:16.444Z,4.93
2022-08-03T14:25:51.870Z,5.28
2022-08-03T14:28:24.453Z,5.30
2022-08-03T14:30:52.937Z,5.10
2022-08-03T14:33:20.520Z,5.20
2022-08-03T14:35:49.122Z,4.90
2022-08-03T14:38:16.305Z,5.30
2022-08-03T14:40:43.645Z,5.47
2022-08-03T14:43:10.885Z,5.07
2022-08-03T14:45:39.279Z,5.78
2022-08-03T14:50:34.332Z,5.72
2022-08-03T14:50:55.282Z,5.78
2022-08-03T14:53:22.619Z,5.50
2022-08-03T14:55:51.810Z,6.15
2022-08-03T14:58:21.820Z,6.13
2022-08-03T15:00:53.152Z,5.30
2022-08-03T15:03:23.743Z,6.50
2022-08-03T15:05:53.049Z,5.28
2022-08-03T15:08:20.879Z,5.60
2022-08-03T15:10:49.229Z,6.35
2022-08-03T15:13:17.664Z,5.82
2022-08-03T15:15:44.745Z,6.18
2022-08-03T15:18:12.102Z,5.90
2022-08-03T15:20:44.844Z,6.10
2022-08-03T15:23:13.123Z,6.15
2022-08-03T15:26:28.461Z,31.67
2022-08-03T15:28:27.149Z,11.80
2022-08-03T15:30:54.169Z,7.63
2022-08-03T15:33:21.167Z,7.25
2022-08-03T15:35:48.320Z,6.53
2022-08-03T15:38:15.806Z,5.80
2022-08-03T15:40:42.787Z,6.47
2022-08-03T15:43:09.870Z,5.80
2022-08-03T15:45:37.355Z,6.30
2022-08-03T15:48:05.861Z,6.20
2022-08-03T15:50:33.174Z,5.80
2022-08-03T15:53:00.190Z,6.47
2022-08-03T15:55:27.353Z,5.88
2022-08-03T15:59:09.577Z,5.82
2022-08-03T16:03:08.710Z,5.53
2022-08-03T16:05:36.172Z,5.68
2022-08-03T16:08:05.541Z,5.65
2022-08-03T16:10:34.439Z,5.43
2022-08-03T16:13:01.460Z,5.72
2022-08-03T16:15:28.669Z,5.47
2022-08-03T16:17:55.707Z,5.95
2022-08-03T16:20:31.261Z,5.47
2022-08-03T16:23:10.702Z,5.70
2022-08-03T16:25:42.678Z,5.65
2022-08-03T16:28:14.118Z,6.10
2022-08-03T16:30:43.936Z,6.00
2022-08-03T16:33:11.914Z,5.50
2022-08-03T16:35:46.566Z,6.15
2022-08-03T16:38:18.331Z,5.50
2022-08-03T16:40:51.638Z,6.15
2022-08-03T16:43:20.463Z,6.28
2022-08-03T16:45:48.019Z,5.72
2022-08-03T16:48:16.012Z,5.30
2022-08-03T16:50:46.784Z,5.95
2022-08-03T16:53:16.565Z,6.05
2022-08-03T16:55:53.581Z,5.80
2022-08-03T16:58:41.075Z,7.00
2022-08-03T17:01:24.314Z,7.47
2022-08-03T17:04:03.674Z,7.03
2022-08-03T17:06:35.606Z,6.85
2022-08-03T17:09:11.553Z,6.72
2022-08-03T17:11:46.564Z,7.10
2022-08-03T17:14:15.432Z,7.10
2022-08-03T17:16:53.002Z,7.53
2022-08-03T17:19:23.500Z,7.50
2022-08-03T17:22:04.592Z,7.32
2022-08-03T17:24:41.226Z,7.93
2022-08-03T17:28:41.690Z,7.65
2022-08-03T17:30:09.448Z,7.35
2022-08-03T17:32:42.494Z,7.05
2022-08-03T17:35:10.998Z,7.32
2022-08-03T17:37:57.606Z,7.45
2022-08-03T17:40:25.302Z,7.22
2022-08-03T17:42:52.974Z,7.50
2022-08-03T17:45:20.639Z,8.07
2022-08-03T17:47:58.008Z,7.15
2022-08-03T17:50:37.298Z,7.85
2022-08-03T17:53:15.292Z,7.90
2022-08-03T17:56:07.693Z,7.45
2022-08-03T17:59:50.670Z,7.30
2022-08-03T18:02:50.058Z,7.40
2022-08-03T18:05:21.986Z,7.35
2022-08-03T18:08:01.690Z,7.82
2022-08-03T18:10:34.237Z,7.45
2022-08-03T18:13:10.917Z,7.90
2022-08-03T18:15:46.231Z,7.40
2022-08-03T18:18:32.841Z,7.55
2022-08-03T18:21:06.761Z,9.30
2022-08-03T18:23:37.931Z,8.05
2022-08-03T18:26:10.702Z,7.35
2022-08-03T18:28:40.786Z,7.40
2022-08-03T18:31:11.647Z,7.60
2022-08-03T18:34:17.446Z,7.25
2022-08-03T18:36:29.954Z,9.25
2022-08-03T18:39:00.135Z,8.13
2022-08-03T18:41:33.478Z,8.00
2022-08-03T18:44:08.046Z,8.00
2022-08-03T18:47:16.811Z,8.50
2022-08-03T18:49:50.186Z,7.80
2022-08-03T18:52:31.058Z,7.82
2022-08-03T18:55:20.788Z,7.35
2022-08-03T18:58:17.995Z,7.70
2022-08-03T19:02:00.004Z,7.75
2022-08-03T19:04:27.947Z,7.55
2022-08-03T19:07:02.940Z,8.75
2022-08-03T19:09:44.982Z,9.13
2022-08-03T19:12:30.716Z,9.30
2022-08-03T19:15:12.786Z,8.02
2022-08-03T19:17:52.829Z,9.95
2022-08-03T19:20:28.468Z,8.30
2022-08-03T19:22:57.409Z,7.97
2022-08-03T19:25:34.616Z,7.43
2022-08-03T19:28:04.089Z,7.97
2022-08-03T19:30:46.515Z,7.93
2022-08-03T19:33:22.782Z,9.75
2022-08-03T19:35:55.022Z,8.65
2022-08-03T19:38:28.767Z,7.53
2022-08-03T19:40:59.852Z,8.23
2022-08-03T19:43:53.040Z,15.73
2022-08-03T19:46:30.178Z,11.43
2022-08-03T19:49:10.639Z,10.75
2022-08-03T19:52:00.561Z,9.57
2022-08-03T19:54:54.038Z,10.02
2022-08-03T19:57:24.676Z,11.38
2022-08-03T19:59:53.889Z,9.82
2022-08-03T20:02:27.249Z,8.02
2022-08-03T20:04:59.958Z,8.30
2022-08-03T20:07:29.080Z,7.72
2022-08-03T20:09:59.722Z,6.85
2022-08-03T20:12:38.582Z,7.20
2022-08-03T20:15:07.657Z,7.60
2022-08-03T20:17:55.321Z,8.05
2022-08-03T20:20:30.078Z,7.60
2022-08-03T20:22:58.904Z,7.60
2022-08-03T20:25:38.469Z,7.97
2022-08-03T20:28:26.828Z,7.85
2022-08-03T20:30:54.338Z,7.97
2022-08-03T20:33:27.978Z,7.50
2022-08-03T20:38:43.553Z,7.00
2022-08-03T20:41:14.242Z,6.90
2022-08-03T20:43:42.037Z,6.97
2022-08-03T20:46:31.033Z,7.47
2022-08-03T20:51:49.854Z,7.30
2022-08-03T20:54:29.222Z,7.65
2022-08-03T20:56:58.323Z,8.30
2022-08-03T20:59:38.538Z,8.18
2022-08-03T21:02:19.331Z,8.82
2022-08-03T21:04:55.596Z,8.40
2022-08-03T21:07:24.078Z,7.60
2022-08-03T21:09:56.093Z,7.95
2022-08-03T21:12:33.849Z,7.65
2022-08-03T21:13:14.253Z,7.72
2022-08-03T21:15:06.599Z,7.78
2022-08-03T21:17:40.817Z,7.07
2022-08-03T21:20:10.403Z,7.93
2022-08-03T21:22:39.457Z,7.93
2022-08-03T21:25:11.038Z,7.85
2022-08-03T21:27:38.339Z,7.40
2022-08-03T21:30:08.453Z,7.35
2022-08-03T21:32:40.244Z,7.05
2022-08-03T21:35:12.518Z,6.80
2022-08-03T21:37:41.742Z,7.30
2022-08-03T21:40:12.227Z,7.15
2022-08-03T21:42:40.709Z,6.80
2022-08-03T21:45:15.181Z,7.13
2022-08-03T21:47:44.451Z,6.88
2022-08-03T21:50:13.474Z,7.05
2022-08-03T21:52:48.222Z,7.20
2022-08-03T21:55:20.558Z,6.72
2022-08-03T21:57:53.585Z,7.05
2022-08-03T22:00:23.374Z,7.13
2022-08-03T22:02:57.143Z,7.53
2022-08-03T22:05:42.484Z,7.82
2022-08-03T22:08:13.454Z,7.43
2022-08-03T22:10:43.825Z,7.18
2022-08-03T22:13:12.990Z,7.40
2022-08-03T22:15:40.486Z,7.30
2022-08-03T22:18:07.581Z,7.72
2022-08-03T22:20:34.727Z,7.50
2022-08-03T22:23:04.827Z,7.53
2022-08-03T22:25:34.729Z,7.13
2022-08-03T22:28:09.431Z,7.88
2022-08-03T22:30:37.715Z,7.85
2022-08-03T22:33:11.536Z,7.47
2022-08-03T22:35:48.178Z,7.72
2022-08-03T22:38:17.754Z,7.68
2022-08-03T22:40:47.128Z,8.13
2022-08-03T22:43:14.217Z,8.52
2022-08-03T22:46:10.662Z,7.55
2022-08-03T22:48:34.466Z,7.80
2022-08-03T22:51:02.854Z,8.02
2022-08-03T22:53:29.978Z,7.35
2022-08-03T22:55:57.499Z,8.18
2022-08-03T22:58:25.199Z,8.20
2022-08-03T23:00:54.017Z,8.30
2022-08-03T23:03:25.955Z,7.95
2022-08-03T23:06:16.499Z,8.07
2022-08-03T23:08:47.819Z,7.85
2022-08-03T23:11:18.093Z,8.23
2022-08-03T23:13:52.283Z,9.13
2022-08-03T23:16:29.089Z,9.38
2022-08-03T23:18:59.561Z,9.55
2022-08-03T23:21:53.960Z,9.77
2022-08-03T23:24:25.967Z,9.73
2022-08-03T23:26:58.319Z,9.82
2022-08-03T23:29:29.136Z,10.15
2022-08-03T23:31:56.768Z,9.63
2022-08-03T23:34:43.583Z,9.70
2022-08-03T23:37:14.018Z,10.32
2022-08-03T23:39:44.800Z,9.38
2022-08-03T23:42:15.179Z,10.00
2022-08-03T23:44:44.639Z,9.45
2022-08-03T23:47:13.251Z,9.85
2022-08-03T23:49:40.290Z,9.70
2022-08-03T23:52:40.528Z,10.05
2022-08-03T23:55:07.650Z,10.75
2022-08-03T23:57:46.931Z,10.30
